createdAt,value
2019-01-19T00:00:06.420Z,7.15
2019-01-19T00:03:38.298Z,3.50
2019-01-19T00:07:04.820Z,3.85
2019-01-19T00:10:47.404Z,4.65
2019-01-19T00:14:23.397Z,4.55
2019-01-19T00:17:56.310Z,4.05
2019-01-19T00:21:34.307Z,3.22
2019-01-19T00:24:59.714Z,4.20
2019-01-19T00:32:05.862Z,3.92
2019-01-19T00:35:43.406Z,4.00
2019-01-19T00:39:20.842Z,3.83
2019-01-19T00:42:45.790Z,3.65
2019-01-19T00:49:21.793Z,3.58
2019-01-19T00:56:45.380Z,4.00
2019-01-19T00:59:31.732Z,3.12
2019-01-19T01:10:04.393Z,3.08
2019-01-19T01:14:04.049Z,3.75
2019-01-19T01:17:40.020Z,3.52
2019-01-19T01:21:13.320Z,3.35
2019-01-19T01:24:48.313Z,4.00
2019-01-19T01:27:43.045Z,4.08
2019-01-19T01:31:06.749Z,3.40
2019-01-19T01:38:08.788Z,4.12
2019-01-19T01:44:47.427Z,3.47
2019-01-19T01:48:39.780Z,3.95
2019-01-19T01:55:09.722Z,3.35
2019-01-19T01:58:33.737Z,4.60
2019-01-19T02:07:34.685Z,4.47
2019-01-19T02:11:30.320Z,4.08
2019-01-19T02:14:46.748Z,3.37
2019-01-19T02:22:21.323Z,3.50
2019-01-19T02:26:33.007Z,3.60
2019-01-19T02:30:15.319Z,4.35
2019-01-19T02:33:30.597Z,4.40
2019-01-19T02:36:38.489Z,3.85
2019-01-19T02:40:00.908Z,4.85
2019-01-19T02:43:37.379Z,3.90
2019-01-19T02:47:12.749Z,4.20
2019-01-19T02:53:53.804Z,3.77
2019-01-19T02:57:47.766Z,3.50
2019-01-19T03:01:22.305Z,4.03
2019-01-19T03:04:51.883Z,4.00
2019-01-19T03:08:43.783Z,5.30
2019-01-19T03:15:43.736Z,4.22
2019-01-19T03:22:40.751Z,4.20
2019-01-19T03:33:22.780Z,4.40
2019-01-19T03:40:29.797Z,3.75
2019-01-19T03:48:09.779Z,5.08
2019-01-19T03:52:11.062Z,4.47
2019-01-19T03:56:03.430Z,4.47
2019-01-19T03:59:36.818Z,3.58
2019-01-19T04:03:13.437Z,3.90
2019-01-19T04:06:53.765Z,4.90
2019-01-19T04:14:15.755Z,3.42
2019-01-19T04:17:57.409Z,4.05
2019-01-19T04:21:49.065Z,5.72
2019-01-19T04:25:05.278Z,4.80
2019-01-19T04:27:36.831Z,4.25
2019-01-19T04:30:12.719Z,4.20
2019-01-19T04:35:15.039Z,3.80
2019-01-19T04:37:46.770Z,4.75
2019-01-19T04:40:18.373Z,5.60
2019-01-19T04:42:50.313Z,4.37
2019-01-19T04:45:22.840Z,4.25
2019-01-19T04:47:54.789Z,5.00
2019-01-19T04:50:26.769Z,4.00
2019-01-19T04:55:29.318Z,4.35
2019-01-19T04:58:00.877Z,3.83
2019-01-19T05:00:32.406Z,3.98
2019-01-19T05:03:04.065Z,4.92
2019-01-19T05:05:35.815Z,4.60
2019-01-19T05:08:07.335Z,4.50
2019-01-19T05:10:39.590Z,4.70
2019-01-19T05:13:11.710Z,4.87
2019-01-19T05:18:14.279Z,4.17
2019-01-19T05:20:45.868Z,4.35
2019-01-19T05:23:17.613Z,4.45
2019-01-19T05:25:48.680Z,5.17
2019-01-19T05:28:20.355Z,4.20
2019-01-19T05:30:51.917Z,4.87
2019-01-19T05:33:24.033Z,5.75
2019-01-19T05:35:56.322Z,4.72
2019-01-19T05:38:27.988Z,4.85
2019-01-19T05:40:59.874Z,4.45
2019-01-19T05:43:31.392Z,5.60
2019-01-19T05:46:03.073Z,4.75
2019-01-19T05:48:34.754Z,4.33
2019-01-19T05:53:37.305Z,4.87
2019-01-19T05:56:09.286Z,4.37
2019-01-19T05:58:40.999Z,5.42
2019-01-19T06:01:12.894Z,5.37
2019-01-19T06:03:44.911Z,5.65
2019-01-19T06:06:16.864Z,7.00
2019-01-19T06:08:48.776Z,7.00
2019-01-19T06:13:51.409Z,7.20
2019-01-19T06:16:23.279Z,6.65
2019-01-19T06:18:55.389Z,6.22
2019-01-19T06:21:31.315Z,6.00
2019-01-19T06:24:04.805Z,7.42
2019-01-19T06:26:36.390Z,7.35
2019-01-19T06:29:08.311Z,7.92
2019-01-19T06:31:39.917Z,7.00
2019-01-19T06:34:11.654Z,6.33
2019-01-19T06:36:43.438Z,7.70
2019-01-19T06:39:15.313Z,6.20
2019-01-19T06:41:47.320Z,6.42
2019-01-19T06:44:18.867Z,7.45
2019-01-19T06:46:51.778Z,6.30
2019-01-19T06:51:54.379Z,7.22
2019-01-19T06:54:28.065Z,6.12
2019-01-19T06:56:59.748Z,6.70
2019-01-19T06:59:31.621Z,5.90
2019-01-19T07:02:03.624Z,6.58
2019-01-19T07:04:35.618Z,6.95
2019-01-19T07:07:07.378Z,6.12
2019-01-19T07:09:39.006Z,5.53
2019-01-19T07:12:10.701Z,5.08
2019-01-19T07:17:13.314Z,5.65
2019-01-19T07:19:45.308Z,5.92
2019-01-19T07:22:17.654Z,5.58
2019-01-19T07:24:49.441Z,4.67
2019-01-19T07:27:21.309Z,4.97
2019-01-19T07:29:52.907Z,6.70
2019-01-19T07:32:24.736Z,4.50
2019-01-19T07:37:27.391Z,5.28
2019-01-19T07:39:59.163Z,4.40
2019-01-19T07:42:30.810Z,4.55
2019-01-19T07:47:33.852Z,4.10
2019-01-19T07:50:05.775Z,5.30
2019-01-19T07:52:37.849Z,4.03
2019-01-19T07:55:12.274Z,5.75
2019-01-19T07:57:43.942Z,5.17
2019-01-19T08:00:21.766Z,5.15
2019-01-19T08:02:53.790Z,4.90
2019-01-19T08:07:56.386Z,4.62
2019-01-19T08:10:28.073Z,4.75
2019-01-19T08:12:59.785Z,5.92
2019-01-19T08:18:02.314Z,6.92
2019-01-19T08:20:34.301Z,5.30
2019-01-19T08:23:05.929Z,4.67
2019-01-19T08:25:37.787Z,7.17
2019-01-19T08:28:09.485Z,4.35
2019-01-19T08:30:41.069Z,5.35
2019-01-19T08:33:12.794Z,4.72
2019-01-19T08:38:15.891Z,4.72
2019-01-19T08:40:47.882Z,4.08
2019-01-19T08:43:37.308Z,4.22
2019-01-19T08:46:09.307Z,6.53
2019-01-19T08:48:41.369Z,6.87
2019-01-19T08:51:14.270Z,4.05
2019-01-19T08:53:46.298Z,5.45
2019-01-19T08:56:18.375Z,4.50
2019-01-19T08:58:50.267Z,4.55
2019-01-19T09:01:22.065Z,7.30
2019-01-19T09:03:53.711Z,5.92
2019-01-19T09:06:25.376Z,5.80
2019-01-19T09:08:57.049Z,4.85
2019-01-19T09:11:29.066Z,7.05
2019-01-19T09:14:00.790Z,6.37
2019-01-19T09:19:03.386Z,5.80
2019-01-19T09:21:35.310Z,5.70
2019-01-19T09:24:11.310Z,6.42
2019-01-19T09:26:42.853Z,7.78
2019-01-19T09:29:14.612Z,6.22
2019-01-19T09:31:46.359Z,5.75
2019-01-19T09:34:18.071Z,5.05
2019-01-19T09:36:49.749Z,7.40
2019-01-19T09:41:52.305Z,5.53
2019-01-19T09:44:23.818Z,4.40
2019-01-19T09:46:55.712Z,7.10
2019-01-19T09:51:58.055Z,5.08
2019-01-19T09:54:29.749Z,6.92
2019-01-19T09:59:32.361Z,5.70
2019-01-19T10:02:04.078Z,6.05
2019-01-19T10:04:36.354Z,6.25
2019-01-19T10:07:08.071Z,6.42
2019-01-19T10:09:40.307Z,5.75
2019-01-19T10:12:11.916Z,7.92
2019-01-19T10:14:43.658Z,5.97
2019-01-19T10:17:16.062Z,6.22
2019-01-19T10:19:47.890Z,6.12
2019-01-19T10:22:19.618Z,6.62
2019-01-19T10:24:51.395Z,5.87
2019-01-19T10:27:23.302Z,6.00
2019-01-19T10:29:55.320Z,6.28
2019-01-19T10:32:26.864Z,6.17
2019-01-19T10:34:58.636Z,6.65
2019-01-19T10:37:30.332Z,5.85
2019-01-19T10:40:02.104Z,5.42
2019-01-19T10:42:33.726Z,5.37
2019-01-19T10:50:11.868Z,8.35
2019-01-19T10:52:43.900Z,4.85
2019-01-19T10:55:18.911Z,7.30
2019-01-19T10:57:50.851Z,5.90
2019-01-19T11:00:30.419Z,7.17
2019-01-19T11:03:02.835Z,4.92
2019-01-19T11:05:34.875Z,5.33
2019-01-19T11:08:08.494Z,5.00
2019-01-19T11:10:40.730Z,4.78
2019-01-19T11:15:43.871Z,4.03
2019-01-19T11:18:16.280Z,6.80
2019-01-19T11:20:48.408Z,6.65
2019-01-19T11:23:20.833Z,4.25
2019-01-19T11:25:52.834Z,5.42
2019-01-19T11:28:24.905Z,5.33
2019-01-19T11:30:57.286Z,4.83
2019-01-19T11:33:29.810Z,5.75
2019-01-19T11:36:01.823Z,5.62
2019-01-19T11:38:33.843Z,7.05
2019-01-19T11:41:05.897Z,5.62
2019-01-19T11:43:37.879Z,5.47
2019-01-19T11:46:09.845Z,5.05
2019-01-19T11:48:41.839Z,4.53
2019-01-19T11:51:13.882Z,6.15
2019-01-19T11:53:45.833Z,5.97
2019-01-19T11:56:17.895Z,5.85
2019-01-19T11:58:49.822Z,5.50
2019-01-19T12:01:21.826Z,4.90
2019-01-19T12:03:53.819Z,3.77
2019-01-19T12:06:25.885Z,5.25
2019-01-19T12:08:57.854Z,4.35
2019-01-19T12:11:29.850Z,4.45
2019-01-19T12:14:02.392Z,5.92
2019-01-19T12:16:34.865Z,5.05
2019-01-19T12:19:06.852Z,6.22
2019-01-19T12:21:38.842Z,3.90
2019-01-19T12:24:10.845Z,5.67
2019-01-19T12:26:43.319Z,3.87
2019-01-19T12:29:15.849Z,3.65
2019-01-19T12:31:48.564Z,4.72
2019-01-19T12:34:20.824Z,5.25
2019-01-19T12:36:52.864Z,5.20
2019-01-19T12:39:25.349Z,5.53
2019-01-19T12:41:57.827Z,4.35
2019-01-19T12:44:29.831Z,3.77
2019-01-19T12:47:01.812Z,4.92
2019-01-19T12:49:33.929Z,3.77
2019-01-19T12:52:05.909Z,4.92
2019-01-19T12:54:37.814Z,6.10
2019-01-19T12:57:09.834Z,5.37
2019-01-19T12:59:41.774Z,5.22
2019-01-19T13:02:13.840Z,4.20
2019-01-19T13:04:45.854Z,5.87
2019-01-19T13:07:19.390Z,4.92
2019-01-19T13:09:59.432Z,5.92
2019-01-19T13:13:06.319Z,6.58
2019-01-19T13:16:46.421Z,15.15
2019-01-19T13:20:06.855Z,11.05
2019-01-19T13:24:06.100Z,13.62
2019-01-19T13:27:52.115Z,11.28
2019-01-19T13:31:45.389Z,9.93
2019-01-19T13:35:42.107Z,9.30
2019-01-19T13:39:36.453Z,8.88
2019-01-19T13:43:32.351Z,11.12
2019-01-19T13:47:27.846Z,12.60
2019-01-19T13:50:56.490Z,10.05
2019-01-19T13:54:45.505Z,9.18
2019-01-19T13:58:32.896Z,8.88
2019-01-19T14:02:44.024Z,10.60
2019-01-19T14:06:11.548Z,11.85
2019-01-19T14:10:03.676Z,9.95
2019-01-19T14:14:09.326Z,10.68
2019-01-19T14:17:29.963Z,11.57
2019-01-19T14:21:11.501Z,14.75
2019-01-19T14:25:04.798Z,11.53
2019-01-19T14:28:48.038Z,8.40
2019-01-19T14:32:33.918Z,13.83
2019-01-19T14:36:20.699Z,8.68
2019-01-19T14:40:26.444Z,8.75
2019-01-19T14:43:50.857Z,7.33
2019-01-19T14:47:16.822Z,10.75
2019-01-19T14:51:06.419Z,8.30
2019-01-19T14:54:52.833Z,8.25
2019-01-19T14:58:17.319Z,13.10
2019-01-19T15:02:19.436Z,14.63
2019-01-19T15:06:13.030Z,18.85
2019-01-19T15:09:46.352Z,22.67
2019-01-19T15:13:48.726Z,28.70
2019-01-19T15:17:23.147Z,29.60
2019-01-19T15:20:55.808Z,24.10
2019-01-19T15:24:32.309Z,27.05
2019-01-19T15:28:06.840Z,30.75
2019-01-19T15:31:50.555Z,38.38
2019-01-19T15:35:35.328Z,25.85
2019-01-19T15:39:10.912Z,36.70
2019-01-19T15:42:36.800Z,43.00
2019-01-19T15:46:09.908Z,40.05
2019-01-19T15:49:41.931Z,32.30
2019-01-19T15:53:11.336Z,37.50
2019-01-19T15:57:07.471Z,29.57
2019-01-19T16:01:07.085Z,41.40
2019-01-19T16:04:30.860Z,34.88
2019-01-19T16:08:04.842Z,31.68
2019-01-19T16:11:26.865Z,35.78
2019-01-19T16:14:56.057Z,33.28
2019-01-19T16:18:30.506Z,38.30
2019-01-19T16:22:05.321Z,35.35
2019-01-19T16:26:08.885Z,33.45
2019-01-19T16:29:47.276Z,34.23
2019-01-19T16:33:32.842Z,31.82
2019-01-19T16:37:10.702Z,29.07
2019-01-19T16:48:12.324Z,29.75
2019-01-19T16:52:20.929Z,32.65
2019-01-19T16:55:58.339Z,25.02
2019-01-19T16:59:44.673Z,25.88
2019-01-19T17:03:51.056Z,24.95
2019-01-19T17:07:59.040Z,24.25
2019-01-19T17:11:34.338Z,27.80
2019-01-19T17:14:58.839Z,27.87
2019-01-19T17:18:12.511Z,25.68
2019-01-19T17:22:01.462Z,29.57
2019-01-19T17:25:42.838Z,27.40
2019-01-19T17:29:18.326Z,20.30
2019-01-19T17:32:37.067Z,21.80
2019-01-19T17:36:38.872Z,17.77
2019-01-19T17:40:17.941Z,19.55
2019-01-19T17:43:35.335Z,16.73
2019-01-19T17:47:28.327Z,17.95
2019-01-19T17:51:30.870Z,19.77
2019-01-19T17:55:30.796Z,18.57
2019-01-19T17:58:59.292Z,19.35
2019-01-19T18:02:48.076Z,21.33
2019-01-19T18:06:20.099Z,20.17
2019-01-19T18:09:49.914Z,18.90
2019-01-19T18:13:54.055Z,21.40
2019-01-19T18:18:04.611Z,21.42
2019-01-19T18:21:20.942Z,19.00
2019-01-19T18:25:18.847Z,20.97
2019-01-19T18:28:56.739Z,18.17
2019-01-19T18:43:11.840Z,19.92
2019-01-19T18:47:33.443Z,20.65
2019-01-19T18:51:18.879Z,19.60
2019-01-19T18:55:15.364Z,16.07
2019-01-19T18:59:24.861Z,16.77
2019-01-19T19:03:12.537Z,19.25
2019-01-19T19:07:11.099Z,17.37
2019-01-19T19:10:59.988Z,17.62
2019-01-19T19:14:21.281Z,18.32
2019-01-19T19:18:15.876Z,15.70
2019-01-19T19:21:41.922Z,16.77
2019-01-19T19:25:19.866Z,21.82
2019-01-19T19:29:20.860Z,17.50
2019-01-19T19:32:44.477Z,18.73
2019-01-19T19:36:10.911Z,20.02
2019-01-19T19:39:42.322Z,19.27
2019-01-19T19:43:37.474Z,21.25
2019-01-19T19:47:20.708Z,17.45
2019-01-19T19:56:00.892Z,17.00
2019-01-19T19:58:32.892Z,18.48
2019-01-19T20:01:04.879Z,16.93
2019-01-19T20:03:37.099Z,18.98
2019-01-19T20:06:09.624Z,17.17
2019-01-19T20:08:41.849Z,19.07
2019-01-19T20:11:14.015Z,19.05
2019-01-19T20:13:45.987Z,18.92
2019-01-19T20:16:17.864Z,17.67
2019-01-19T20:18:49.881Z,16.37
2019-01-19T20:21:22.321Z,18.67
2019-01-19T20:23:54.834Z,16.30
2019-01-19T20:26:26.866Z,16.25
2019-01-19T20:28:59.324Z,19.12
2019-01-19T20:31:31.859Z,15.72
2019-01-19T20:34:03.914Z,16.20
2019-01-19T20:36:35.864Z,16.73
2019-01-19T20:39:11.316Z,16.20
2019-01-19T20:41:43.582Z,17.45
2019-01-19T20:44:15.913Z,18.20
2019-01-19T20:46:47.887Z,16.20
2019-01-19T20:49:22.435Z,15.35
2019-01-19T20:51:53.850Z,15.95
2019-01-19T20:54:27.015Z,16.82
2019-01-19T20:56:58.919Z,17.27
2019-01-19T20:59:30.816Z,18.52
2019-01-19T21:02:02.931Z,18.73
2019-01-19T21:04:34.813Z,16.17
2019-01-19T21:07:06.851Z,18.60
2019-01-19T21:09:38.836Z,16.80
2019-01-19T21:12:11.324Z,15.78
2019-01-19T21:14:43.928Z,19.05
2019-01-19T21:17:15.894Z,17.57
2019-01-19T21:19:48.427Z,15.05
2019-01-19T21:22:20.860Z,16.25
2019-01-19T21:24:53.545Z,20.37
2019-01-19T21:27:25.955Z,17.95
2019-01-19T21:29:58.821Z,17.70
2019-01-19T21:32:31.020Z,15.32
2019-01-19T21:35:03.864Z,18.75
2019-01-19T21:37:35.890Z,13.48
2019-01-19T21:40:11.308Z,15.25
2019-01-19T21:42:44.044Z,15.75
2019-01-19T21:45:20.400Z,15.38
2019-01-19T21:47:52.915Z,15.88
2019-01-19T21:50:24.852Z,15.03
2019-01-19T21:52:56.840Z,15.48
2019-01-19T21:55:28.842Z,14.25
2019-01-19T21:58:00.857Z,15.18
2019-01-19T22:00:32.841Z,14.20
2019-01-19T22:03:04.827Z,14.35
2019-01-19T22:05:36.845Z,14.20
2019-01-19T22:08:09.000Z,15.13
2019-01-19T22:10:46.310Z,14.93
2019-01-19T22:13:16.498Z,13.60
2019-01-19T22:15:49.363Z,16.50
2019-01-19T22:18:21.856Z,17.12
2019-01-19T22:20:54.316Z,13.32
2019-01-19T22:23:26.974Z,13.03
2019-01-19T22:25:59.826Z,14.50
2019-01-19T22:28:31.817Z,12.88
2019-01-19T22:31:03.984Z,13.78
2019-01-19T22:33:36.736Z,14.15
2019-01-19T22:38:40.825Z,12.68
2019-01-19T22:41:12.900Z,12.25
2019-01-19T22:43:44.851Z,11.73
2019-01-19T22:46:17.094Z,13.83
2019-01-19T22:48:49.870Z,14.60
2019-01-19T22:51:22.842Z,14.80
2019-01-19T22:53:55.330Z,13.80
2019-01-19T22:56:27.559Z,14.63
2019-01-19T22:58:59.755Z,11.53
2019-01-19T23:02:10.668Z,12.30
2019-01-19T23:04:43.319Z,13.80
2019-01-19T23:07:15.628Z,12.18
2019-01-19T23:09:47.900Z,12.80
2019-01-19T23:12:19.824Z,12.20
2019-01-19T23:14:52.291Z,12.13
2019-01-19T23:17:24.827Z,13.05
2019-01-19T23:19:57.068Z,11.75
2019-01-19T23:22:29.317Z,13.68
2019-01-19T23:25:02.100Z,12.80
2019-01-19T23:27:34.314Z,14.30
2019-01-19T23:30:08.282Z,12.60
2019-01-19T23:32:40.339Z,12.28
2019-01-19T23:35:12.482Z,13.20
2019-01-19T23:37:44.504Z,14.23
2019-01-19T23:40:16.844Z,12.90
2019-01-19T23:42:48.870Z,13.93
2019-01-19T23:45:20.841Z,11.73
2019-01-19T23:47:52.847Z,16.65
2019-01-19T23:50:25.112Z,11.53
2019-01-19T23:52:57.328Z,12.25
2019-01-19T23:55:29.854Z,12.65
2019-01-19T23:58:01.905Z,14.15
